createdAt,value
2023-05-02T00:00:37.689Z,13.33
2023-05-02T00:03:41.966Z,13.34
2023-05-02T00:06:47.061Z,13.32
2023-05-02T00:09:49.746Z,13.41
2023-05-02T00:12:52.323Z,13.18
2023-05-02T00:15:54.913Z,12.89
2023-05-02T00:18:57.553Z,12.90
2023-05-02T00:22:01.530Z,12.89
2023-05-02T00:25:04.573Z,12.80
2023-05-02T00:28:07.181Z,12.78
2023-05-02T00:31:10.384Z,12.59
2023-05-02T00:34:13.124Z,12.58
2023-05-02T00:37:17.051Z,12.64
2023-05-02T00:40:19.869Z,12.70
2023-05-02T00:43:22.449Z,12.83
2023-05-02T00:46:25.354Z,12.90
2023-05-02T00:49:28.417Z,12.87
2023-05-02T00:52:32.470Z,12.97
2023-05-02T00:55:35.662Z,12.96
2023-05-02T00:58:39.495Z,12.87
2023-05-02T01:01:53.554Z,12.95
2023-05-02T01:05:03.655Z,12.99
2023-05-02T01:08:15.108Z,12.95
2023-05-02T01:11:29.204Z,12.91
2023-05-02T01:14:36.027Z,12.93
2023-05-02T01:17:39.992Z,12.71
2023-05-02T01:20:47.496Z,12.77
2023-05-02T01:24:01.718Z,12.65
2023-05-02T01:27:19.599Z,12.54
2023-05-02T01:30:25.500Z,12.69
2023-05-02T01:33:29.520Z,12.80
2023-05-02T01:36:34.565Z,12.75
2023-05-02T01:39:39.261Z,12.48
2023-05-02T01:42:43.609Z,12.68
2023-05-02T01:45:50.971Z,12.73
2023-05-02T01:48:54.587Z,12.85
2023-05-02T01:51:58.160Z,12.94
2023-05-02T01:55:02.351Z,12.68
2023-05-02T01:58:07.429Z,12.52
2023-05-02T02:01:12.677Z,12.44
2023-05-02T02:04:17.344Z,12.45
2023-05-02T02:07:20.661Z,12.61
2023-05-02T02:10:25.891Z,12.61
2023-05-02T02:13:32.339Z,12.45
2023-05-02T02:16:39.910Z,12.50
2023-05-02T02:19:43.771Z,12.24
2023-05-02T02:22:47.928Z,12.34
2023-05-02T02:25:53.341Z,11.97
2023-05-02T02:28:56.544Z,12.05
2023-05-02T02:32:00.559Z,11.97
2023-05-02T02:35:03.979Z,12.21
2023-05-02T02:38:12.523Z,12.35
2023-05-02T02:41:28.416Z,12.37
2023-05-02T02:44:43.753Z,12.10
2023-05-02T02:47:56.208Z,12.17
2023-05-02T02:51:09.101Z,11.80
2023-05-02T02:54:26.977Z,11.81
2023-05-02T02:57:37.309Z,11.91
2023-05-02T03:00:40.708Z,11.72
2023-05-02T03:03:47.260Z,11.65
2023-05-02T03:06:50.207Z,11.65
2023-05-02T03:09:52.844Z,11.87
2023-05-02T03:12:56.150Z,11.84
2023-05-02T03:16:30.472Z,11.78
2023-05-02T03:19:34.451Z,11.68
2023-05-02T03:22:37.022Z,11.43
2023-05-02T03:25:39.725Z,11.34
2023-05-02T03:28:42.343Z,11.16
2023-05-02T03:31:45.001Z,11.02
2023-05-02T03:34:49.465Z,11.06
2023-05-02T03:37:52.069Z,11.05
2023-05-02T03:40:58.034Z,10.89
2023-05-02T03:44:00.637Z,10.45
2023-05-02T03:47:03.516Z,10.56
2023-05-02T03:50:09.224Z,10.71
2023-05-02T03:53:11.840Z,10.52
2023-05-02T03:56:20.032Z,10.26
2023-05-02T03:59:22.731Z,9.80
2023-05-02T04:02:26.235Z,9.86
2023-05-02T04:05:30.232Z,9.97
2023-05-02T04:08:33.064Z,10.14
2023-05-02T04:11:35.723Z,10.32
2023-05-02T04:14:38.311Z,10.05
2023-05-02T04:17:40.964Z,9.78
2023-05-02T04:20:45.670Z,9.81
2023-05-02T04:23:48.266Z,9.67
2023-05-02T04:26:50.866Z,9.63
2023-05-02T04:29:54.325Z,9.57
2023-05-02T04:32:57.669Z,9.51
2023-05-02T04:36:01.635Z,9.63
2023-05-02T04:39:07.478Z,9.73
2023-05-02T04:42:10.086Z,9.68
2023-05-02T04:45:12.701Z,9.83
2023-05-02T04:48:15.418Z,9.82
2023-05-02T04:51:19.412Z,9.56
2023-05-02T04:54:21.988Z,9.71
2023-05-02T04:57:24.575Z,9.66
2023-05-02T05:00:27.257Z,9.57
2023-05-02T05:03:30.843Z,9.72
2023-05-02T05:06:35.056Z,9.60
2023-05-02T05:09:37.681Z,9.70
2023-05-02T05:12:41.024Z,9.77
2023-05-02T05:15:44.421Z,10.05
2023-05-02T05:18:49.172Z,10.17
2023-05-02T05:21:53.144Z,9.75
2023-05-02T05:24:56.178Z,9.98
2023-05-02T05:28:00.339Z,10.04
2023-05-02T05:31:06.731Z,9.84
2023-05-02T05:34:09.359Z,9.19
2023-05-02T05:37:13.469Z,9.64
2023-05-02T05:40:16.838Z,9.94
2023-05-02T05:43:19.423Z,9.77
2023-05-02T05:46:22.009Z,9.57
2023-05-02T05:49:24.908Z,9.49
2023-05-02T05:52:28.937Z,9.58
2023-05-02T05:55:31.550Z,9.30
2023-05-02T05:58:34.271Z,9.31
2023-05-02T06:01:38.085Z,9.22
2023-05-02T06:04:40.835Z,9.14
2023-05-02T06:07:44.818Z,9.34
2023-05-02T06:10:47.391Z,9.71
2023-05-02T06:13:50.002Z,9.94
2023-05-02T06:16:52.583Z,9.83
2023-05-02T06:19:55.195Z,9.73
2023-05-02T06:22:59.163Z,10.00
2023-05-02T06:26:02.140Z,9.83
2023-05-02T06:29:04.753Z,9.54
2023-05-02T06:32:07.425Z,9.78
2023-05-02T06:35:10.972Z,9.94
2023-05-02T06:38:18.061Z,9.97
2023-05-02T06:41:20.721Z,9.88
2023-05-02T06:44:23.322Z,9.45
2023-05-02T06:47:26.294Z,9.55
2023-05-02T06:50:30.059Z,9.84
2023-05-02T06:53:34.181Z,9.74
2023-05-02T06:56:36.899Z,9.72
2023-05-02T06:59:39.571Z,9.55
2023-05-02T07:02:42.307Z,9.41
2023-05-02T07:05:44.985Z,9.42
2023-05-02T07:08:48.979Z,9.56
2023-05-02T07:11:51.552Z,9.66
2023-05-02T07:14:54.249Z,9.65
2023-05-02T07:17:56.884Z,9.51
2023-05-02T07:21:01.293Z,9.50
2023-05-02T07:24:05.934Z,9.44
2023-05-02T07:27:10.190Z,9.56
2023-05-02T07:30:14.048Z,9.30
2023-05-02T07:33:16.737Z,9.67
2023-05-02T07:36:19.360Z,9.33
2023-05-02T07:39:23.827Z,9.53
2023-05-02T07:42:30.234Z,9.67
2023-05-02T07:45:32.896Z,9.75
2023-05-02T07:48:35.940Z,9.74
2023-05-02T07:51:39.792Z,9.81
2023-05-02T07:54:43.754Z,9.73
2023-05-02T07:57:46.323Z,9.67
2023-05-02T08:00:48.915Z,9.98
2023-05-02T08:03:51.729Z,10.06
2023-05-02T08:06:55.796Z,10.30
2023-05-02T08:09:59.986Z,10.72
2023-05-02T08:13:02.815Z,10.60
2023-05-02T08:16:06.529Z,10.57
2023-05-02T08:19:09.456Z,10.30
2023-05-02T08:22:12.120Z,10.46
2023-05-02T08:25:16.544Z,10.76
2023-05-02T08:28:19.743Z,10.73
2023-05-02T08:31:22.553Z,10.57
2023-05-02T08:34:25.228Z,10.67
2023-05-02T08:37:27.813Z,10.61
2023-05-02T08:40:42.124Z,10.60
2023-05-02T08:43:45.510Z,10.89
2023-05-02T08:46:51.634Z,11.03
2023-05-02T08:49:56.347Z,10.60
2023-05-02T08:53:00.398Z,10.90
2023-05-02T08:56:04.779Z,11.21
2023-05-02T08:59:08.278Z,11.43
2023-05-02T09:02:23.806Z,11.07
2023-05-02T09:05:26.616Z,11.12
2023-05-02T09:08:29.229Z,10.97
2023-05-02T09:11:33.243Z,10.95
2023-05-02T09:14:36.063Z,11.35
2023-05-02T09:17:42.876Z,11.21
2023-05-02T09:20:45.662Z,11.00
2023-05-02T09:23:49.686Z,11.07
2023-05-02T09:27:01.035Z,11.29
2023-05-02T09:30:20.806Z,11.45
2023-05-02T09:33:28.305Z,11.78
2023-05-02T09:36:40.820Z,11.80
2023-05-02T09:40:07.045Z,12.20
2023-05-02T09:43:17.157Z,12.19
2023-05-02T09:46:19.964Z,11.93
2023-05-02T09:49:41.052Z,11.68
2023-05-02T09:53:02.416Z,11.87
2023-05-02T09:56:05.810Z,13.11
2023-05-02T09:59:15.707Z,14.11
2023-05-02T10:02:19.140Z,14.32
2023-05-02T10:05:22.657Z,13.37
2023-05-02T10:08:28.496Z,13.34
2023-05-02T10:11:33.562Z,13.79
2023-05-02T10:14:42.227Z,13.74
2023-05-02T10:17:50.601Z,13.83
2023-05-02T10:20:58.081Z,13.84
2023-05-02T10:24:03.349Z,13.56
2023-05-02T10:27:06.748Z,13.42
2023-05-02T10:30:13.962Z,13.34
2023-05-02T10:33:18.921Z,13.87
2023-05-02T10:36:23.658Z,13.59
2023-05-02T10:39:26.733Z,12.93
2023-05-02T10:42:31.240Z,13.00
2023-05-02T10:45:37.256Z,12.89
2023-05-02T10:48:40.046Z,12.84
2023-05-02T10:51:44.232Z,12.64
2023-05-02T10:54:47.033Z,12.81
2023-05-02T10:58:22.183Z,12.94
2023-05-02T11:01:39.802Z,12.59
2023-05-02T11:05:04.416Z,12.54
2023-05-02T11:08:32.477Z,11.94
2023-05-02T11:11:42.487Z,12.85
2023-05-02T11:14:49.870Z,13.41
2023-05-02T11:18:06.543Z,13.77
2023-05-02T11:21:28.780Z,14.28
2023-05-02T11:24:42.129Z,13.98
2023-05-02T11:27:46.247Z,14.62
2023-05-02T11:30:50.866Z,15.59
2023-05-02T11:33:58.511Z,15.36
2023-05-02T11:37:01.145Z,14.54
2023-05-02T11:40:13.862Z,14.25
2023-05-02T11:43:17.841Z,14.07
2023-05-02T11:46:21.101Z,13.90
2023-05-02T11:49:25.392Z,13.40
2023-05-02T11:52:28.029Z,13.00
2023-05-02T11:55:30.817Z,12.99
2023-05-02T11:58:34.376Z,13.26
2023-05-02T12:01:37.343Z,13.31
2023-05-02T12:04:45.404Z,13.47
2023-05-02T12:07:49.271Z,13.30
2023-05-02T12:10:53.615Z,13.27
2023-05-02T12:13:56.331Z,12.94
2023-05-02T12:17:00.118Z,13.13
2023-05-02T12:20:08.894Z,13.16
2023-05-02T12:23:12.802Z,12.88
2023-05-02T12:26:19.576Z,12.88
2023-05-02T12:29:22.272Z,12.70
2023-05-02T12:32:29.703Z,12.49
2023-05-02T12:35:34.655Z,12.79
2023-05-02T12:38:37.285Z,12.87
2023-05-02T12:41:43.587Z,12.85
2023-05-02T12:44:48.295Z,12.84
2023-05-02T12:47:51.136Z,13.03
2023-05-02T12:50:56.081Z,12.89
2023-05-02T12:53:58.727Z,12.98
2023-05-02T12:57:02.950Z,13.17
2023-05-02T13:00:06.944Z,13.03
2023-05-02T13:03:10.433Z,12.98
2023-05-02T13:06:14.440Z,13.00
2023-05-02T13:09:18.631Z,13.01
2023-05-02T13:12:21.365Z,12.98
2023-05-02T13:15:24.034Z,12.79
2023-05-02T13:18:28.000Z,12.67
2023-05-02T13:21:32.423Z,12.63
2023-05-02T13:24:35.004Z,13.38
2023-05-02T13:27:37.581Z,13.50
2023-05-02T13:30:40.355Z,13.32
2023-05-02T13:33:42.993Z,13.36
2023-05-02T13:36:47.028Z,13.05
2023-05-02T13:39:49.631Z,13.01
2023-05-02T13:42:52.272Z,13.00
2023-05-02T13:45:54.907Z,12.73
2023-05-02T13:48:57.656Z,12.43
2023-05-02T13:52:01.600Z,12.57
2023-05-02T13:55:04.807Z,12.58
2023-05-02T13:58:07.444Z,12.76
2023-05-02T14:01:10.107Z,12.83
2023-05-02T14:04:12.894Z,12.51
2023-05-02T14:07:16.910Z,12.31
2023-05-02T14:10:19.552Z,12.59
2023-05-02T14:13:22.196Z,12.48
2023-05-02T14:16:24.990Z,12.59
2023-05-02T14:19:27.689Z,12.57
2023-05-02T14:22:31.648Z,12.24
2023-05-02T14:25:34.329Z,12.00
2023-05-02T14:28:38.293Z,11.97
2023-05-02T14:31:41.755Z,12.09
2023-05-02T14:34:44.425Z,12.06
2023-05-02T14:37:48.359Z,12.19
2023-05-02T14:40:51.037Z,11.95
2023-05-02T14:43:53.767Z,11.96
2023-05-02T14:46:56.726Z,12.19
2023-05-02T14:49:59.741Z,12.05
2023-05-02T14:53:04.994Z,12.18
2023-05-02T14:56:13.273Z,12.32
2023-05-02T14:59:15.888Z,12.18
2023-05-02T15:02:18.832Z,11.82
2023-05-02T15:05:21.426Z,11.80
2023-05-02T15:08:25.377Z,11.71
2023-05-02T15:11:27.944Z,11.85
2023-05-02T15:14:30.577Z,11.93
2023-05-02T15:17:33.232Z,12.01
2023-05-02T15:20:36.488Z,12.15
2023-05-02T15:23:40.464Z,12.16
2023-05-02T15:26:43.030Z,12.22
2023-05-02T15:29:45.748Z,11.99
2023-05-02T15:32:48.373Z,12.48
2023-05-02T15:35:55.511Z,12.47
2023-05-02T15:38:59.799Z,12.54
2023-05-02T15:42:04.745Z,12.19
2023-05-02T15:45:08.533Z,12.26
2023-05-02T15:48:11.130Z,12.39
2023-05-02T15:51:13.725Z,12.01
2023-05-02T15:54:18.118Z,12.20
2023-05-02T15:57:21.202Z,12.35
2023-05-02T16:00:24.116Z,12.57
2023-05-02T16:03:26.922Z,12.82
2023-05-02T16:06:30.928Z,12.77
2023-05-02T16:09:34.979Z,12.64
2023-05-02T16:12:37.577Z,12.48
2023-05-02T16:15:40.381Z,12.52
2023-05-02T16:18:43.016Z,12.42
2023-05-02T16:21:45.886Z,12.31
2023-05-02T16:24:49.888Z,12.12
2023-05-02T16:27:52.567Z,12.09
2023-05-02T16:30:55.475Z,11.94
2023-05-02T16:33:59.032Z,12.01
2023-05-02T16:37:03.240Z,11.97
2023-05-02T16:40:09.092Z,11.83
2023-05-02T16:43:11.827Z,11.83
2023-05-02T16:46:14.469Z,11.92
2023-05-02T16:49:17.100Z,12.12
2023-05-02T16:52:19.691Z,11.81
2023-05-02T16:55:23.909Z,11.80
2023-05-02T16:58:28.734Z,11.73
2023-05-02T17:01:31.515Z,11.83
2023-05-02T17:04:34.247Z,11.77
2023-05-02T17:07:37.045Z,11.75
2023-05-02T17:10:40.997Z,11.46
2023-05-02T17:13:43.816Z,11.50
2023-05-02T17:16:46.451Z,11.56
2023-05-02T17:19:49.175Z,11.47
2023-05-02T17:22:52.557Z,11.41
2023-05-02T17:25:56.856Z,11.45
2023-05-02T17:28:59.554Z,11.35
2023-05-02T17:32:02.236Z,11.27
2023-05-02T17:35:05.372Z,11.21
2023-05-02T17:38:08.035Z,11.16
2023-05-02T17:41:12.294Z,11.20
2023-05-02T17:44:15.811Z,11.31
2023-05-02T17:47:19.763Z,11.30
2023-05-02T17:50:22.633Z,11.22
2023-05-02T17:53:26.402Z,11.03
2023-05-02T17:56:30.424Z,11.05
2023-05-02T17:59:33.052Z,11.17
2023-05-02T18:02:37.900Z,11.15
2023-05-02T18:05:43.965Z,11.12
2023-05-02T18:08:47.112Z,11.26
2023-05-02T18:11:52.076Z,11.01
2023-05-02T18:14:54.856Z,11.07
2023-05-02T18:17:57.660Z,10.83
2023-05-02T18:21:00.667Z,10.89
2023-05-02T18:24:03.478Z,10.60
2023-05-02T18:27:07.980Z,10.56
2023-05-02T18:30:11.376Z,10.41
2023-05-02T18:33:14.069Z,10.37
2023-05-02T18:36:19.389Z,10.72
2023-05-02T18:39:22.091Z,10.63
2023-05-02T18:42:26.347Z,10.67
2023-05-02T18:45:29.292Z,10.79
2023-05-02T18:48:32.329Z,10.67
2023-05-02T18:51:35.056Z,10.85
2023-05-02T18:54:37.697Z,10.76
2023-05-02T18:57:44.312Z,10.63
2023-05-02T19:00:46.943Z,10.84
2023-05-02T19:03:49.829Z,10.61
2023-05-02T19:06:52.585Z,10.60
2023-05-02T19:09:55.341Z,10.44
2023-05-02T19:12:59.302Z,10.50
2023-05-02T19:16:02.043Z,10.50
2023-05-02T19:19:04.846Z,10.36
2023-05-02T19:22:07.493Z,10.38
2023-05-02T19:25:12.784Z,10.28
2023-05-02T19:28:17.160Z,10.26
2023-05-02T19:31:21.689Z,10.36
2023-05-02T19:34:24.313Z,10.39
2023-05-02T19:37:26.867Z,10.31
2023-05-02T19:40:29.509Z,10.31
2023-05-02T19:43:34.511Z,10.15
2023-05-02T19:46:37.210Z,9.95
2023-05-02T19:49:39.892Z,9.99
2023-05-02T19:52:44.408Z,10.11
2023-05-02T19:55:47.485Z,10.21
2023-05-02T19:58:51.441Z,10.31
2023-05-02T20:01:54.036Z,10.42
2023-05-02T20:04:56.633Z,10.35
2023-05-02T20:07:59.481Z,10.46
2023-05-02T20:11:02.174Z,10.23
2023-05-02T20:14:06.130Z,10.33
2023-05-02T20:17:08.963Z,10.17
2023-05-02T20:20:12.659Z,9.88
2023-05-02T20:23:15.967Z,9.98
2023-05-02T20:26:18.659Z,9.98
2023-05-02T20:29:22.626Z,9.61
2023-05-02T20:32:25.314Z,9.60
2023-05-02T20:35:29.572Z,9.65
2023-05-02T20:38:32.171Z,9.53
2023-05-02T20:41:35.928Z,9.39
2023-05-02T20:44:39.903Z,9.41
2023-05-02T20:47:42.509Z,9.54
2023-05-02T20:50:53.146Z,9.52
2023-05-02T20:53:55.797Z,9.63
2023-05-02T20:56:58.395Z,9.38
2023-05-02T21:00:03.661Z,9.53
2023-05-02T21:03:06.516Z,9.53
2023-05-02T21:06:09.249Z,9.41
2023-05-02T21:09:11.889Z,9.23
2023-05-02T21:12:14.462Z,9.21
2023-05-02T21:15:18.491Z,9.12
2023-05-02T21:18:22.616Z,9.14
2023-05-02T21:21:25.216Z,9.12
2023-05-02T21:24:27.842Z,9.09
2023-05-02T21:27:30.583Z,9.05
2023-05-02T21:30:34.553Z,9.02
2023-05-02T21:33:37.143Z,8.96
2023-05-02T21:36:39.710Z,8.84
2023-05-02T21:39:42.282Z,8.85
2023-05-02T21:42:44.880Z,8.71
2023-05-02T21:45:50.214Z,8.57
2023-05-02T21:48:52.811Z,8.63
2023-05-02T21:51:55.382Z,8.61
2023-05-02T21:54:58.676Z,8.48
2023-05-02T21:58:01.278Z,8.31
2023-05-02T22:01:05.364Z,8.29
2023-05-02T22:04:08.010Z,8.24
2023-05-02T22:07:10.608Z,8.22
2023-05-02T22:10:13.201Z,8.16
2023-05-02T22:13:16.422Z,8.07
2023-05-02T22:16:21.386Z,7.92
2023-05-02T22:19:24.246Z,8.02
2023-05-02T22:22:27.058Z,7.84
2023-05-02T22:25:29.661Z,7.64
2023-05-02T22:28:32.250Z,7.74
2023-05-02T22:31:36.986Z,7.69
2023-05-02T22:34:39.565Z,7.59
2023-05-02T22:37:42.155Z,7.52
2023-05-02T22:40:44.707Z,7.48
2023-05-02T22:43:48.359Z,7.55
2023-05-02T22:46:52.862Z,7.48
2023-05-02T22:49:56.710Z,7.32
2023-05-02T22:52:59.677Z,7.39
2023-05-02T22:56:02.989Z,7.35
2023-05-02T22:59:05.625Z,7.24
2023-05-02T23:02:11.391Z,7.21
2023-05-02T23:05:14.178Z,7.27
2023-05-02T23:08:16.801Z,7.24
2023-05-02T23:11:19.386Z,7.08
2023-05-02T23:14:22.905Z,7.02
2023-05-02T23:17:26.885Z,7.05
2023-05-02T23:20:29.537Z,7.06
2023-05-02T23:23:32.232Z,7.01
2023-05-02T23:26:34.815Z,6.99
2023-05-02T23:29:37.481Z,6.91
2023-05-02T23:32:41.510Z,6.82
2023-05-02T23:35:44.160Z,6.83
2023-05-02T23:38:46.878Z,6.83
2023-05-02T23:41:49.542Z,6.76
2023-05-02T23:44:53.658Z,6.66
2023-05-02T23:47:57.651Z,6.57
2023-05-02T23:51:00.484Z,6.76
2023-05-02T23:54:03.060Z,6.67
2023-05-02T23:57:05.865Z,6.62
